createdAt,value
2023-01-25T00:03:11.507Z,16.80
2023-01-25T00:08:07.071Z,16.57
2023-01-25T00:13:00.500Z,15.03
2023-01-25T00:17:53.758Z,15.30
2023-01-25T00:22:46.980Z,14.60
2023-01-25T00:27:41.625Z,16.83
2023-01-25T00:32:48.164Z,18.63
2023-01-25T00:37:44.935Z,17.37
2023-01-25T00:42:38.227Z,13.00
2023-01-25T00:47:33.014Z,13.90
2023-01-25T00:52:30.584Z,14.47
2023-01-25T00:57:24.000Z,15.97
2023-01-25T01:02:17.499Z,15.87
2023-01-25T01:07:14.939Z,15.23
2023-01-25T01:12:08.357Z,13.73
2023-01-25T01:17:04.202Z,18.30
2023-01-25T01:21:57.575Z,13.67
2023-01-25T01:26:52.477Z,17.80
2023-01-25T01:31:45.842Z,19.00
2023-01-25T01:36:45.475Z,22.07
2023-01-25T01:41:39.771Z,16.10
2023-01-25T01:46:56.216Z,17.43
2023-01-25T01:51:56.566Z,15.17
2023-01-25T01:56:58.439Z,16.13
2023-01-25T02:01:53.859Z,14.87
2023-01-25T02:06:51.983Z,15.33
2023-01-25T02:11:48.083Z,15.83
2023-01-25T02:16:43.249Z,17.30
2023-01-25T02:21:44.261Z,19.57
2023-01-25T02:26:41.783Z,21.73
2023-01-25T02:31:35.875Z,17.87
2023-01-25T02:36:30.898Z,18.13
2023-01-25T02:41:28.726Z,17.83
2023-01-25T02:46:27.711Z,16.37
2023-01-25T02:51:21.626Z,17.60
2023-01-25T02:56:14.941Z,16.93
2023-01-25T03:01:10.817Z,17.47
2023-01-25T03:06:09.633Z,17.70
2023-01-25T03:11:05.428Z,17.23
2023-01-25T03:16:01.674Z,22.70
2023-01-25T03:20:55.005Z,21.30
2023-01-25T03:25:52.171Z,22.10
2023-01-25T03:30:50.103Z,17.00
2023-01-25T03:35:43.843Z,18.90
2023-01-25T03:40:38.040Z,21.03
2023-01-25T03:45:32.911Z,17.60
2023-01-25T03:50:27.938Z,23.90
2023-01-25T03:55:21.280Z,19.20
2023-01-25T04:00:16.116Z,20.27
2023-01-25T04:05:14.665Z,19.77
2023-01-25T04:10:10.297Z,20.43
2023-01-25T04:15:09.250Z,19.93
2023-01-25T04:20:04.826Z,20.60
2023-01-25T04:25:04.558Z,21.55
2023-01-25T04:29:58.867Z,20.77
2023-01-25T04:34:53.753Z,24.57
2023-01-25T04:39:52.319Z,23.50
2023-01-25T04:44:47.830Z,23.27
2023-01-25T04:49:41.232Z,21.00
2023-01-25T04:54:39.118Z,22.00
2023-01-25T04:59:33.031Z,23.13
2023-01-25T05:04:27.946Z,24.83
2023-01-25T05:09:21.682Z,22.83
2023-01-25T05:14:15.279Z,21.57
2023-01-25T05:19:12.331Z,23.33
2023-01-25T05:24:27.698Z,23.60
2023-01-25T05:29:21.079Z,22.77
2023-01-25T05:34:26.239Z,28.77
2023-01-25T05:39:22.364Z,24.30
2023-01-25T05:44:17.836Z,22.90
2023-01-25T05:49:17.267Z,22.37
2023-01-25T05:54:20.378Z,25.67
2023-01-25T05:59:28.904Z,21.43
2023-01-25T06:04:28.149Z,25.33
2023-01-25T06:09:22.510Z,23.13
2023-01-25T06:14:19.423Z,25.47
2023-01-25T06:19:17.864Z,27.83
2023-01-25T06:24:37.248Z,27.43
2023-01-25T06:29:30.528Z,31.67
2023-01-25T06:34:25.484Z,28.90
2023-01-25T06:39:19.839Z,29.33
2023-01-25T06:44:12.990Z,22.93
2023-01-25T06:49:06.216Z,26.63
2023-01-25T06:54:04.009Z,26.80
2023-01-25T06:58:57.256Z,27.07
2023-01-25T07:03:53.730Z,28.03
2023-01-25T07:08:48.312Z,26.63
2023-01-25T07:13:43.758Z,27.23
2023-01-25T07:18:38.202Z,28.80
2023-01-25T07:23:34.093Z,30.63
2023-01-25T07:28:27.705Z,27.53
2023-01-25T07:33:22.203Z,34.97
2023-01-25T07:38:15.403Z,26.10
2023-01-25T07:43:09.658Z,34.00
2023-01-25T07:48:10.998Z,27.73
2023-01-25T07:53:05.591Z,33.53
2023-01-25T07:57:58.854Z,37.40
2023-01-25T08:02:52.242Z,32.37
2023-01-25T08:07:45.447Z,29.63
2023-01-25T08:12:40.001Z,30.00
2023-01-25T08:17:36.025Z,32.53
2023-01-25T08:22:29.527Z,40.60
2023-01-25T08:27:22.674Z,30.90
2023-01-25T08:32:17.361Z,29.70
2023-01-25T08:37:10.628Z,32.83
2023-01-25T08:42:04.302Z,25.93
2023-01-25T08:46:57.452Z,28.97
2023-01-25T08:51:53.021Z,28.07
2023-01-25T08:56:46.211Z,25.50
2023-01-25T09:01:40.081Z,25.47
2023-01-25T09:06:34.486Z,23.37
2023-01-25T09:11:29.146Z,24.07
2023-01-25T09:16:28.847Z,26.10
2023-01-25T09:21:22.549Z,36.45
2023-01-25T09:26:16.654Z,20.67
2023-01-25T09:31:21.530Z,27.13
2023-01-25T09:36:33.170Z,23.13
2023-01-25T09:41:51.833Z,24.40
2023-01-25T09:46:52.621Z,20.92
2023-01-25T09:52:03.345Z,19.53
2023-01-25T09:56:57.976Z,23.33
2023-01-25T10:01:57.550Z,19.57
2023-01-25T10:07:00.917Z,18.93
2023-01-25T10:11:54.912Z,21.00
2023-01-25T10:17:02.304Z,20.17
2023-01-25T10:21:58.955Z,21.40
2023-01-25T10:26:57.873Z,19.67
2023-01-25T10:31:53.922Z,21.20
2023-01-25T10:36:49.015Z,20.83
2023-01-25T10:41:47.291Z,20.43
2023-01-25T10:46:42.757Z,20.20
2023-01-25T10:51:37.386Z,21.07
2023-01-25T10:56:31.949Z,20.03
2023-01-25T11:01:32.886Z,20.77
2023-01-25T11:06:34.825Z,22.27
2023-01-25T11:11:35.071Z,25.17
2023-01-25T11:16:33.322Z,22.58
2023-01-25T11:21:28.125Z,20.93
2023-01-25T11:26:21.672Z,18.47
2023-01-25T11:31:18.785Z,21.17
2023-01-25T11:36:26.299Z,21.00
2023-01-25T11:41:28.205Z,22.33
2023-01-25T11:46:45.670Z,23.70
2023-01-25T11:51:46.674Z,20.20
2023-01-25T11:56:52.057Z,19.67
2023-01-25T12:02:04.863Z,19.30
2023-01-25T12:07:04.430Z,21.27
2023-01-25T12:12:10.907Z,16.93
2023-01-25T12:17:24.116Z,20.30
2023-01-25T12:22:47.032Z,17.93
2023-01-25T12:27:54.521Z,14.83
2023-01-25T12:32:57.302Z,17.47
2023-01-25T12:37:57.384Z,19.37
2023-01-25T12:42:56.862Z,19.13
2023-01-25T12:47:58.219Z,18.10
2023-01-25T12:52:58.669Z,14.80
2023-01-25T12:58:01.235Z,16.50
2023-01-25T13:03:08.395Z,16.70
2023-01-25T13:08:17.822Z,17.00
2023-01-25T13:13:23.973Z,19.00
2023-01-25T13:18:41.679Z,18.43
2023-01-25T13:23:36.586Z,19.63
2023-01-25T13:28:45.900Z,18.40
2023-01-25T13:33:43.088Z,17.80
2023-01-25T13:38:36.899Z,18.73
2023-01-25T13:43:30.317Z,17.43
2023-01-25T13:48:28.860Z,14.77
2023-01-25T13:53:25.157Z,15.50
2023-01-25T13:58:21.580Z,19.43
2023-01-25T14:03:14.995Z,22.40
2023-01-25T14:08:11.373Z,21.37
2023-01-25T14:13:05.903Z,19.40
2023-01-25T14:18:16.484Z,21.90
2023-01-25T14:23:22.718Z,31.95
2023-01-25T14:28:17.685Z,17.80
2023-01-25T14:33:20.313Z,21.27
2023-01-25T14:38:26.782Z,23.87
2023-01-25T14:43:21.930Z,21.23
2023-01-25T14:48:53.049Z,25.47
2023-01-25T14:53:52.074Z,24.88
2023-01-25T14:58:50.857Z,26.03
2023-01-25T15:03:54.987Z,29.00
2023-01-25T15:08:50.387Z,29.60
2023-01-25T15:13:44.094Z,25.93
2023-01-25T15:18:50.823Z,26.73
2023-01-25T15:23:49.748Z,26.20
2023-01-25T15:28:50.444Z,20.97
2023-01-25T15:39:24.438Z,25.17
2023-01-25T15:44:22.397Z,26.80
2023-01-25T15:49:28.600Z,22.20
2023-01-25T16:00:54.897Z,17.50
2023-01-25T16:06:11.872Z,31.17
2023-01-25T16:11:34.581Z,31.20
2023-01-25T16:16:33.391Z,29.93
2023-01-25T16:21:26.829Z,32.20
2023-01-25T16:26:29.327Z,23.77
2023-01-25T16:31:32.959Z,26.23
2023-01-25T16:36:27.132Z,33.90
2023-01-25T16:41:22.739Z,27.40
2023-01-25T16:46:20.471Z,30.67
2023-01-25T16:51:23.830Z,34.23
2023-01-25T16:56:21.251Z,25.07
2023-01-25T17:01:16.577Z,31.40
2023-01-25T17:06:17.448Z,21.43
2023-01-25T17:11:14.373Z,24.93
2023-01-25T17:16:08.581Z,30.30
2023-01-25T17:21:17.920Z,26.67
2023-01-25T17:26:13.783Z,39.73
2023-01-25T17:31:15.775Z,26.83
2023-01-25T17:36:15.178Z,24.47
2023-01-25T17:41:13.422Z,26.13
2023-01-25T17:46:14.437Z,30.47
2023-01-25T17:51:15.901Z,21.47
2023-01-25T17:56:12.730Z,20.60
2023-01-25T18:01:14.090Z,19.30
2023-01-25T18:06:09.680Z,28.63
2023-01-25T18:11:06.351Z,23.40
2023-01-25T18:16:01.370Z,26.07
2023-01-25T18:21:07.172Z,26.67
2023-01-25T18:26:03.044Z,25.33
2023-01-25T18:31:02.551Z,24.10
2023-01-25T18:35:57.567Z,24.83
2023-01-25T18:40:51.002Z,23.77
2023-01-25T18:45:44.703Z,26.80
2023-01-25T18:50:41.413Z,26.90
2023-01-25T18:55:34.878Z,25.43
2023-01-25T19:00:28.194Z,25.03
2023-01-25T19:05:22.050Z,31.23
2023-01-25T19:10:21.061Z,29.70
2023-01-25T19:15:14.385Z,33.70
2023-01-25T19:20:08.440Z,29.83
2023-01-25T19:25:02.811Z,30.37
2023-01-25T19:29:58.703Z,29.03
2023-01-25T19:34:52.696Z,29.20
2023-01-25T19:39:46.138Z,26.20
2023-01-25T19:44:40.328Z,22.23
2023-01-25T19:49:35.319Z,22.83
2023-01-25T19:54:28.992Z,23.17
2023-01-25T19:59:25.373Z,24.60
2023-01-25T20:04:21.427Z,23.07
2023-01-25T20:09:17.465Z,23.80
2023-01-25T20:14:14.321Z,24.57
2023-01-25T20:19:07.778Z,26.33
2023-01-25T20:24:05.674Z,24.00
2023-01-25T20:29:01.969Z,21.60
2023-01-25T20:33:58.565Z,23.63
2023-01-25T20:38:52.217Z,22.77
2023-01-25T20:43:49.303Z,24.87
2023-01-25T20:48:44.808Z,28.90
2023-01-25T20:53:38.871Z,26.80
2023-01-25T20:58:32.621Z,32.27
2023-01-25T21:03:27.237Z,29.23
2023-01-25T21:08:24.701Z,28.17
2023-01-25T21:13:18.172Z,25.40
2023-01-25T21:18:11.449Z,27.53
2023-01-25T21:23:04.595Z,26.80
2023-01-25T21:27:59.190Z,27.23
2023-01-25T21:32:52.507Z,23.17
2023-01-25T21:37:46.330Z,23.93
2023-01-25T21:42:39.689Z,23.73
2023-01-25T21:47:34.354Z,23.80
2023-01-25T21:52:27.674Z,22.90
2023-01-25T21:57:22.394Z,24.70
2023-01-25T22:02:16.430Z,20.83
2023-01-25T22:07:11.992Z,25.63
2023-01-25T22:12:05.739Z,24.23
2023-01-25T22:17:00.515Z,25.53
2023-01-25T22:21:53.758Z,29.10
2023-01-25T22:26:59.004Z,29.57
2023-01-25T22:31:52.443Z,30.97
2023-01-25T22:36:45.718Z,27.17
2023-01-25T22:41:39.048Z,26.63
2023-01-25T22:46:36.062Z,26.20
2023-01-25T22:51:30.991Z,24.43
2023-01-25T22:56:25.971Z,26.13
2023-01-25T23:01:22.416Z,29.93
2023-01-25T23:06:18.444Z,28.80
2023-01-25T23:11:16.418Z,30.70
2023-01-25T23:16:11.160Z,28.80
2023-01-25T23:21:04.740Z,32.03
2023-01-25T23:26:01.499Z,30.90
2023-01-25T23:31:11.472Z,34.00
2023-01-25T23:36:12.459Z,29.90
2023-01-25T23:41:07.694Z,30.53
2023-01-25T23:46:01.017Z,32.13
2023-01-25T23:50:54.942Z,33.67
2023-01-25T23:55:53.369Z,34.17
